createdAt,value
2019-05-07T00:02:14.277Z,101512.34
2019-05-07T00:04:43.946Z,101517.23
2019-05-07T00:07:13.818Z,101519.20
2019-05-07T00:09:43.521Z,101514.23
2019-05-07T00:12:13.191Z,101516.41
2019-05-07T00:14:51.656Z,101515.58
2019-05-07T00:17:14.330Z,101519.16
2019-05-07T00:19:44.009Z,101519.26
2019-05-07T00:22:13.667Z,101518.73
2019-05-07T00:24:43.377Z,101520.39
2019-05-07T00:27:13.248Z,101514.98
2019-05-07T00:29:43.106Z,101506.50
2019-05-07T00:32:12.886Z,101513.87
2019-05-07T00:34:44.208Z,101506.44
2019-05-07T00:37:27.837Z,101507.92
2019-05-07T00:40:02.781Z,101514.55
2019-05-07T00:42:34.264Z,101512.03
2019-05-07T00:45:17.006Z,101505.94
2019-05-07T00:47:38.275Z,101505.88
2019-05-07T00:50:09.731Z,101503.70
2019-05-07T00:52:39.459Z,101506.91
2019-05-07T00:55:09.205Z,101515.07
2019-05-07T00:57:39.132Z,101510.63
2019-05-07T01:00:09.778Z,101507.73
2019-05-07T01:02:39.500Z,101516.38
2019-05-07T01:05:09.523Z,101510.94
2019-05-07T01:07:39.311Z,101513.38
2019-05-07T01:10:09.623Z,101507.08
2019-05-07T01:12:39.348Z,101500.68
2019-05-07T01:15:09.278Z,101514.14
2019-05-07T01:17:39.021Z,101510.70
2019-05-07T01:20:08.776Z,101507.42
2019-05-07T01:22:38.446Z,101505.36
2019-05-07T01:25:09.055Z,101502.67
2019-05-07T01:27:38.733Z,101505.43
2019-05-07T01:30:08.933Z,101501.23
2019-05-07T01:32:45.978Z,101510.31
2019-05-07T01:35:25.869Z,101507.02
2019-05-07T01:37:55.534Z,101504.87
2019-05-07T01:40:25.294Z,101513.83
2019-05-07T01:42:54.963Z,101513.52
2019-05-07T01:45:25.125Z,101512.92
2019-05-07T01:47:54.927Z,101509.31
2019-05-07T01:50:24.611Z,101508.35
2019-05-07T01:52:54.274Z,101513.82
2019-05-07T01:55:23.952Z,101517.47
2019-05-07T01:57:53.623Z,101514.44
2019-05-07T02:00:23.378Z,101517.73
2019-05-07T02:02:57.911Z,101517.73
2019-05-07T02:05:29.258Z,101527.98
2019-05-07T02:08:09.782Z,101538.20
2019-05-07T02:10:47.221Z,101545.64
2019-05-07T02:13:16.885Z,101542.31
2019-05-07T02:15:57.262Z,101536.77
2019-05-07T02:18:18.015Z,101533.77
2019-05-07T02:20:47.709Z,101542.34
2019-05-07T02:23:17.390Z,101534.42
2019-05-07T02:25:47.083Z,101533.66
2019-05-07T02:28:16.751Z,101535.20
2019-05-07T02:30:46.424Z,101536.88
2019-05-07T02:33:16.177Z,101538.48
2019-05-07T02:35:45.840Z,101538.89
2019-05-07T02:38:22.809Z,101536.30
2019-05-07T02:40:53.604Z,101534.64
2019-05-07T02:43:23.356Z,101532.47
2019-05-07T02:46:21.566Z,101531.45
2019-05-07T02:48:42.564Z,101539.22
2019-05-07T02:51:15.425Z,101539.72
2019-05-07T02:54:04.875Z,101548.31
2019-05-07T02:56:34.554Z,101547.91
2019-05-07T02:59:04.385Z,101545.22
2019-05-07T03:01:34.050Z,101538.22
2019-05-07T03:04:03.823Z,101537.05
2019-05-07T03:06:34.225Z,101530.17
2019-05-07T03:09:05.992Z,101532.83
2019-05-07T03:11:35.850Z,101539.16
2019-05-07T03:14:05.594Z,101534.27
2019-05-07T03:16:43.514Z,101540.35
2019-05-07T03:19:06.915Z,101543.36
2019-05-07T03:21:55.289Z,101540.19
2019-05-07T03:24:36.709Z,101543.28
2019-05-07T03:27:06.472Z,101546.97
2019-05-07T03:29:37.851Z,101542.11
2019-05-07T03:32:09.182Z,101540.04
2019-05-07T03:34:46.437Z,101537.67
2019-05-07T03:37:16.439Z,101544.70
2019-05-07T03:39:46.182Z,101540.50
2019-05-07T03:42:15.921Z,101539.86
2019-05-07T03:44:47.240Z,101543.19
2019-05-07T03:47:18.555Z,101544.53
2019-05-07T03:49:48.603Z,101546.87
2019-05-07T03:52:18.440Z,101544.31
2019-05-07T03:54:48.139Z,101549.23
2019-05-07T03:57:17.814Z,101544.73
2019-05-07T03:59:47.687Z,101544.41
2019-05-07T04:02:17.341Z,101555.84
2019-05-07T04:04:47.029Z,101556.99
2019-05-07T04:07:16.723Z,101558.23
2019-05-07T04:09:46.486Z,101557.11
2019-05-07T04:12:16.153Z,101554.95
2019-05-07T04:14:45.910Z,101552.54
2019-05-07T04:17:22.217Z,101558.53
2019-05-07T04:19:47.167Z,101547.92
2019-05-07T04:22:18.655Z,101550.43
2019-05-07T04:25:05.196Z,101549.84
2019-05-07T04:27:52.704Z,101550.34
2019-05-07T04:30:23.497Z,101543.75
2019-05-07T04:32:55.120Z,101544.05
2019-05-07T04:35:26.439Z,101538.63
2019-05-07T04:37:56.142Z,101543.43
2019-05-07T04:40:25.829Z,101553.15
2019-05-07T04:42:55.502Z,101547.58
2019-05-07T04:45:25.184Z,101545.72
2019-05-07T04:47:54.851Z,101540.73
2019-05-07T04:50:39.544Z,101535.23
2019-05-07T04:53:03.164Z,101539.39
2019-05-07T04:55:33.632Z,101534.84
2019-05-07T04:58:08.266Z,101539.73
2019-05-07T05:00:34.825Z,101542.67
2019-05-07T05:03:18.257Z,101536.11
2019-05-07T05:05:48.068Z,101534.52
2019-05-07T05:08:26.478Z,101539.61
2019-05-07T05:10:56.166Z,101540.89
2019-05-07T05:13:25.848Z,101556.34
2019-05-07T05:15:55.810Z,101571.86
2019-05-07T05:18:25.655Z,101577.61
2019-05-07T05:21:12.190Z,101585.80
2019-05-07T05:23:46.195Z,101588.03
2019-05-07T05:26:16.154Z,101561.94
2019-05-07T05:28:45.883Z,101564.45
2019-05-07T05:31:15.580Z,101567.25
2019-05-07T05:33:45.246Z,101579.52
2019-05-07T05:36:15.007Z,101592.02
2019-05-07T05:38:44.809Z,101598.43
2019-05-07T05:41:14.499Z,101600.27
2019-05-07T05:43:52.714Z,101589.66
2019-05-07T05:46:24.209Z,101580.81
2019-05-07T05:48:53.902Z,101569.80
2019-05-07T05:51:32.212Z,101570.20
2019-05-07T05:54:03.735Z,101571.05
2019-05-07T05:56:52.023Z,101571.17
2019-05-07T05:59:48.118Z,101572.96
2019-05-07T06:02:12.153Z,101572.42
2019-05-07T06:04:43.765Z,101574.94
2019-05-07T06:07:18.178Z,101572.92
2019-05-07T06:09:49.657Z,101570.32
2019-05-07T06:12:37.266Z,101565.49
2019-05-07T06:15:09.658Z,101575.25
2019-05-07T06:17:57.222Z,101565.56
2019-05-07T06:20:44.975Z,101558.82
2019-05-07T06:23:25.078Z,101558.61
2019-05-07T06:25:54.774Z,101553.28
2019-05-07T06:28:24.513Z,101547.69
2019-05-07T06:30:54.209Z,101549.13
2019-05-07T06:33:23.878Z,101549.93
2019-05-07T06:35:53.689Z,101551.61
2019-05-07T06:38:24.501Z,101550.16
2019-05-07T06:41:02.667Z,101557.92
2019-05-07T06:43:34.187Z,101563.34
2019-05-07T06:46:05.160Z,101562.61
2019-05-07T06:48:42.522Z,101555.61
2019-05-07T06:51:06.293Z,101562.63
2019-05-07T06:53:36.004Z,101555.75
2019-05-07T06:56:05.812Z,101563.52
2019-05-07T06:58:41.927Z,101558.89
2019-05-07T07:01:25.421Z,101558.99
2019-05-07T07:04:02.916Z,101569.94
2019-05-07T07:06:49.426Z,101562.18
2019-05-07T07:09:29.986Z,101559.77
2019-05-07T07:12:02.081Z,101564.60
2019-05-07T07:14:33.146Z,101565.95
2019-05-07T07:17:03.046Z,101558.74
2019-05-07T07:19:35.985Z,101558.91
2019-05-07T07:22:04.618Z,101560.31
2019-05-07T07:24:34.450Z,101553.75
2019-05-07T07:27:04.380Z,101552.14
2019-05-07T07:29:35.786Z,101544.38
2019-05-07T07:32:07.225Z,101546.69
2019-05-07T07:34:38.581Z,101538.70
2019-05-07T07:37:15.166Z,101530.84
2019-05-07T07:39:43.028Z,101527.27
2019-05-07T07:42:12.794Z,101532.03
2019-05-07T07:44:42.671Z,101527.16
2019-05-07T07:47:13.051Z,101525.84
2019-05-07T07:49:42.943Z,101523.75
2019-05-07T07:52:12.631Z,101522.84
2019-05-07T07:54:42.963Z,101520.66
2019-05-07T07:57:32.439Z,101516.82
2019-05-07T08:00:03.559Z,101521.80
2019-05-07T08:02:34.885Z,101519.59
2019-05-07T08:05:05.788Z,101520.42
2019-05-07T08:07:35.701Z,101525.98
2019-05-07T08:10:06.509Z,101526.66
2019-05-07T08:12:36.432Z,101523.15
2019-05-07T08:15:16.710Z,101531.22
2019-05-07T08:17:41.772Z,101540.09
2019-05-07T08:20:12.762Z,101539.75
2019-05-07T08:22:42.833Z,101541.87
2019-05-07T08:25:12.930Z,101532.62
2019-05-07T08:27:42.917Z,101532.08
2019-05-07T08:30:14.807Z,101534.93
2019-05-07T08:32:58.669Z,101525.33
2019-05-07T08:35:32.535Z,101531.17
2019-05-07T08:38:02.316Z,101529.55
2019-05-07T08:40:32.634Z,101529.11
2019-05-07T08:43:03.225Z,101532.27
2019-05-07T08:45:52.483Z,101524.77
2019-05-07T08:48:33.574Z,101521.55
2019-05-07T08:51:03.325Z,101531.80
2019-05-07T08:53:33.092Z,101539.88
2019-05-07T08:56:03.347Z,101531.67
2019-05-07T08:58:33.349Z,101531.52
2019-05-07T09:01:03.325Z,101530.56
2019-05-07T09:03:45.188Z,101528.84
2019-05-07T09:06:15.455Z,101528.00
2019-05-07T09:08:45.210Z,101516.16
2019-05-07T09:11:15.021Z,101518.65
2019-05-07T09:13:44.785Z,101517.95
2019-05-07T09:16:14.685Z,101521.91
2019-05-07T09:18:44.500Z,101521.27
2019-05-07T09:21:14.382Z,101510.08
2019-05-07T09:23:44.205Z,101525.63
2019-05-07T09:26:15.823Z,101523.29
2019-05-07T09:28:56.093Z,101519.06
2019-05-07T09:31:39.752Z,101522.33
2019-05-07T09:34:11.682Z,101522.92
2019-05-07T09:36:42.936Z,101526.13
2019-05-07T09:39:12.804Z,101539.61
2019-05-07T09:41:42.580Z,101541.54
2019-05-07T09:44:12.398Z,101548.55
2019-05-07T09:46:43.058Z,101549.67
2019-05-07T09:49:13.759Z,101549.85
2019-05-07T09:51:43.749Z,101555.05
2019-05-07T09:54:13.554Z,101554.76
2019-05-07T09:56:43.354Z,101558.77
2019-05-07T09:59:13.163Z,101553.59
2019-05-07T10:01:43.066Z,101554.48
2019-05-07T10:04:12.998Z,101551.05
2019-05-07T10:06:43.048Z,101544.45
2019-05-07T10:09:12.911Z,101539.77
2019-05-07T10:11:44.360Z,101531.48
2019-05-07T10:14:14.209Z,101532.34
2019-05-07T10:16:52.433Z,101535.84
2019-05-07T10:19:22.339Z,101534.16
2019-05-07T10:21:52.941Z,101565.87
2019-05-07T10:24:23.109Z,101571.97
2019-05-07T10:26:53.217Z,101571.97
2019-05-07T10:29:23.184Z,101564.61
2019-05-07T10:31:53.098Z,101556.25
2019-05-07T10:34:22.973Z,101551.77
2019-05-07T10:36:52.797Z,101546.27
2019-05-07T10:39:22.538Z,101543.87
2019-05-07T10:41:52.627Z,101536.33
2019-05-07T10:44:24.116Z,101537.61
2019-05-07T10:47:12.183Z,101532.66
2019-05-07T10:49:49.389Z,101520.56
2019-05-07T10:52:19.361Z,101525.83
2019-05-07T10:54:59.462Z,101524.59
2019-05-07T10:57:22.352Z,101527.56
2019-05-07T10:59:52.464Z,101535.80
2019-05-07T11:02:23.820Z,101536.98
2019-05-07T11:04:53.591Z,101529.87
2019-05-07T11:07:23.398Z,101530.50
2019-05-07T11:09:53.139Z,101527.16
2019-05-07T11:12:23.050Z,101527.44
2019-05-07T11:14:52.876Z,101531.56
2019-05-07T11:17:36.620Z,101526.43
2019-05-07T11:20:08.023Z,101521.41
2019-05-07T11:22:37.917Z,101518.34
2019-05-07T11:25:08.129Z,101505.54
2019-05-07T11:27:37.989Z,101499.06
2019-05-07T11:30:08.774Z,101501.86
2019-05-07T11:32:38.584Z,101494.16
2019-05-07T11:35:08.791Z,101496.52
2019-05-07T11:37:38.692Z,101507.64
2019-05-07T11:40:09.856Z,101504.78
2019-05-07T11:42:57.637Z,101506.28
2019-05-07T11:45:32.245Z,101499.39
2019-05-07T11:48:04.285Z,101501.91
2019-05-07T11:50:59.670Z,101504.58
2019-05-07T11:53:21.980Z,101506.30
2019-05-07T11:55:52.425Z,101507.63
2019-05-07T11:58:22.548Z,101509.88
2019-05-07T12:00:58.425Z,101510.69
2019-05-07T12:03:28.150Z,101487.83
2019-05-07T12:05:59.531Z,101481.65
2019-05-07T12:08:42.813Z,101488.51
2019-05-07T12:11:04.475Z,101491.78
2019-05-07T12:13:34.278Z,101492.73
2019-05-07T12:16:04.110Z,101486.99
2019-05-07T12:18:33.845Z,101494.66
2019-05-07T12:21:16.710Z,101496.31
2019-05-07T12:23:35.125Z,101483.48
2019-05-07T12:26:05.040Z,101487.28
2019-05-07T12:28:35.248Z,101489.53
2019-05-07T12:31:06.875Z,101492.86
2019-05-07T12:33:47.019Z,101484.19
2019-05-07T12:36:16.889Z,101490.84
2019-05-07T12:38:46.643Z,101489.45
2019-05-07T12:41:33.679Z,101487.20
2019-05-07T12:44:06.697Z,101486.49
2019-05-07T12:46:37.189Z,101491.51
2019-05-07T12:49:07.187Z,101490.43
2019-05-07T12:51:38.669Z,101496.84
2019-05-07T12:54:28.609Z,101500.83
2019-05-07T12:56:58.411Z,101500.09
2019-05-07T12:59:28.182Z,101497.14
2019-05-07T13:02:21.815Z,101491.16
2019-05-07T13:04:47.011Z,101500.50
2019-05-07T13:07:25.308Z,101483.81
2019-05-07T13:09:55.433Z,101489.19
2019-05-07T13:12:25.156Z,101486.80
2019-05-07T13:14:55.024Z,101484.17
2019-05-07T13:17:24.831Z,101477.95
2019-05-07T13:19:54.636Z,101472.85
2019-05-07T13:22:24.371Z,101465.95
2019-05-07T13:24:54.098Z,101461.09
2019-05-07T13:27:24.093Z,101464.80
2019-05-07T13:29:53.911Z,101465.34
2019-05-07T13:32:26.568Z,101463.48
2019-05-07T13:34:57.194Z,101457.44
2019-05-07T13:37:28.612Z,101451.95
2019-05-07T13:40:00.093Z,101458.66
2019-05-07T13:42:32.102Z,101466.72
2019-05-07T13:45:03.575Z,101456.46
2019-05-07T13:47:35.624Z,101448.28
2019-05-07T13:50:08.074Z,101450.20
2019-05-07T13:55:43.359Z,101444.72
2019-05-07T13:58:18.838Z,101449.41
2019-05-07T14:01:05.422Z,101445.26
2019-05-07T14:03:35.310Z,101437.44
2019-05-07T14:06:05.193Z,101438.17
2019-05-07T14:08:37.640Z,101444.03
2019-05-07T14:11:07.626Z,101440.02
2019-05-07T14:13:38.307Z,101444.77
2019-05-07T14:16:12.801Z,101437.10
2019-05-07T14:18:42.667Z,101442.33
2019-05-07T14:21:13.035Z,101441.95
2019-05-07T14:23:42.987Z,101445.30
2019-05-07T14:26:12.970Z,101442.58
2019-05-07T14:28:43.043Z,101440.93
2019-05-07T14:31:12.929Z,101430.80
2019-05-07T14:34:02.380Z,101443.68
2019-05-07T14:36:50.450Z,101437.59
2019-05-07T14:39:22.009Z,101440.09
2019-05-07T14:41:53.518Z,101432.28
2019-05-07T14:44:23.405Z,101424.07
2019-05-07T14:46:54.386Z,101428.34
2019-05-07T14:49:24.630Z,101420.88
2019-05-07T14:51:54.710Z,101427.54
2019-05-07T14:54:24.575Z,101423.79
2019-05-07T14:56:54.360Z,101423.86
2019-05-07T14:59:24.179Z,101425.02
2019-05-07T15:01:54.031Z,101417.73
2019-05-07T15:04:23.834Z,101425.69
2019-05-07T15:06:53.656Z,101422.70
2019-05-07T15:09:23.408Z,101424.86
2019-05-07T15:11:53.169Z,101427.17
2019-05-07T15:14:22.982Z,101425.53
2019-05-07T15:16:54.712Z,101423.34
2019-05-07T15:19:24.393Z,101420.94
2019-05-07T15:21:55.879Z,101413.14
2019-05-07T15:24:25.711Z,101412.04
2019-05-07T15:26:56.721Z,101413.70
2019-05-07T15:29:26.645Z,101412.67
2019-05-07T15:31:58.094Z,101405.41
2019-05-07T15:34:27.834Z,101392.02
2019-05-07T15:36:57.595Z,101407.31
2019-05-07T15:39:27.347Z,101411.28
2019-05-07T15:41:57.117Z,101402.64
2019-05-07T15:44:27.222Z,101396.18
2019-05-07T15:46:58.672Z,101407.47
2019-05-07T15:49:28.447Z,101399.37
2019-05-07T15:52:01.774Z,101396.16
2019-05-07T15:54:32.605Z,101398.93
2019-05-07T15:57:03.990Z,101400.58
2019-05-07T15:59:33.651Z,101399.78
2019-05-07T16:02:12.343Z,101405.36
2019-05-07T16:04:42.123Z,101403.92
2019-05-07T16:07:13.277Z,101399.41
2019-05-07T16:09:43.526Z,101397.52
2019-05-07T16:12:14.854Z,101405.30
2019-05-07T16:14:44.789Z,101399.52
2019-05-07T16:17:24.981Z,101389.58
2019-05-07T16:19:55.252Z,101389.06
2019-05-07T16:22:26.627Z,101394.64
2019-05-07T16:24:56.601Z,101378.23
2019-05-07T16:27:26.264Z,101394.03
2019-05-07T16:29:56.129Z,101382.09
2019-05-07T16:32:25.883Z,101387.71
2019-05-07T16:34:55.654Z,101382.92
2019-05-07T16:37:25.423Z,101382.22
2019-05-07T16:39:55.113Z,101379.29
2019-05-07T16:42:24.816Z,101375.23
2019-05-07T16:44:54.507Z,101379.14
2019-05-07T16:47:24.214Z,101376.59
2019-05-07T16:49:53.983Z,101378.16
2019-05-07T16:52:23.699Z,101376.80
2019-05-07T16:54:53.359Z,101373.97
2019-05-07T16:57:27.659Z,101378.09
2019-05-07T16:59:57.557Z,101376.58
2019-05-07T17:02:28.983Z,101384.55
2019-05-07T17:05:09.314Z,101378.52
2019-05-07T17:07:43.540Z,101377.65
2019-05-07T17:10:13.793Z,101374.84
2019-05-07T17:12:45.229Z,101379.48
2019-05-07T17:15:15.072Z,101372.50
2019-05-07T17:17:44.840Z,101371.43
2019-05-07T17:20:15.005Z,101375.70
2019-05-07T17:22:47.477Z,101375.59
2019-05-07T17:25:35.973Z,101378.05
2019-05-07T17:28:07.131Z,101375.03
2019-05-07T17:30:37.896Z,101376.90
2019-05-07T17:33:07.748Z,101374.58
2019-05-07T17:35:37.434Z,101375.73
2019-05-07T17:38:09.824Z,101372.31
2019-05-07T17:40:38.602Z,101373.86
2019-05-07T17:43:08.370Z,101373.84
2019-05-07T17:45:38.120Z,101376.69
2019-05-07T17:48:07.935Z,101372.78
2019-05-07T17:50:39.265Z,101372.40
2019-05-07T17:53:08.935Z,101376.41
2019-05-07T17:55:38.611Z,101367.30
2019-05-07T17:58:08.368Z,101370.16
2019-05-07T18:00:38.584Z,101363.45
2019-05-07T18:03:09.964Z,101363.17
2019-05-07T18:05:39.982Z,101365.68
2019-05-07T18:08:09.633Z,101362.63
2019-05-07T18:10:39.426Z,101361.73
2019-05-07T18:13:09.200Z,101363.06
2019-05-07T18:15:38.889Z,101354.89
2019-05-07T18:18:12.849Z,101363.53
2019-05-07T18:20:42.348Z,101361.74
2019-05-07T18:23:16.804Z,101360.56
2019-05-07T18:25:43.753Z,101358.20
2019-05-07T18:28:16.028Z,101356.52
2019-05-07T18:30:44.886Z,101361.74
2019-05-07T18:33:16.226Z,101361.59
2019-05-07T18:35:47.651Z,101358.04
2019-05-07T18:38:17.317Z,101357.12
2019-05-07T18:40:47.092Z,101361.20
2019-05-07T18:43:16.822Z,101353.52
2019-05-07T18:45:46.503Z,101354.55
2019-05-07T18:48:16.207Z,101357.26
2019-05-07T18:50:45.937Z,101356.11
2019-05-07T18:53:15.633Z,101358.25
2019-05-07T18:55:45.296Z,101351.75
2019-05-07T18:58:15.165Z,101350.92
2019-05-07T19:00:58.648Z,101357.05
2019-05-07T19:03:28.432Z,101357.78
2019-05-07T19:05:58.233Z,101358.02
2019-05-07T19:08:35.607Z,101353.38
2019-05-07T19:11:05.859Z,101352.97
2019-05-07T19:13:35.794Z,101355.09
2019-05-07T19:16:05.657Z,101356.75
2019-05-07T19:18:35.431Z,101352.17
2019-05-07T19:21:06.861Z,101359.86
2019-05-07T19:23:36.837Z,101361.91
2019-05-07T19:26:06.768Z,101362.20
2019-05-07T19:28:36.632Z,101367.66
2019-05-07T19:31:06.533Z,101360.27
2019-05-07T19:33:36.454Z,101361.85
2019-05-07T19:36:06.313Z,101354.45
2019-05-07T19:38:36.455Z,101347.21
2019-05-07T19:41:06.243Z,101349.56
2019-05-07T19:43:36.475Z,101351.31
2019-05-07T19:46:06.235Z,101349.95
2019-05-07T19:48:36.169Z,101346.52
2019-05-07T19:51:06.263Z,101349.72
2019-05-07T19:53:36.080Z,101344.02
2019-05-07T19:56:16.553Z,101348.61
2019-05-07T19:58:46.522Z,101347.27
2019-05-07T20:01:18.054Z,101346.06
2019-05-07T20:03:49.096Z,101350.44
2019-05-07T20:06:18.933Z,101348.41
2019-05-07T20:08:48.657Z,101338.12
2019-05-07T20:11:22.840Z,101340.11
2019-05-07T20:13:52.577Z,101333.17
2019-05-07T20:16:23.149Z,101332.92
2019-05-07T20:18:52.969Z,101327.03
2019-05-07T20:21:23.110Z,101324.02
2019-05-07T20:23:52.897Z,101327.47
2019-05-07T20:26:23.915Z,101318.94
2019-05-07T20:28:53.652Z,101321.93
2019-05-07T20:31:23.481Z,101323.13
2019-05-07T20:33:53.399Z,101320.67
2019-05-07T20:36:23.149Z,101323.28
2019-05-07T20:38:52.999Z,101325.02
2019-05-07T20:41:23.437Z,101322.48
2019-05-07T20:43:53.248Z,101318.53
2019-05-07T20:46:22.947Z,101313.83
2019-05-07T20:48:52.752Z,101315.52
2019-05-07T20:51:23.235Z,101310.92
2019-05-07T20:53:57.243Z,101308.69
2019-05-07T20:56:37.920Z,101309.42
2019-05-07T20:59:07.739Z,101299.98
2019-05-07T21:01:37.415Z,101302.92
2019-05-07T21:04:07.231Z,101291.17
2019-05-07T21:06:37.140Z,101308.63
2019-05-07T21:09:08.556Z,101301.48
2019-05-07T21:11:38.251Z,101301.27
2019-05-07T21:14:07.938Z,101303.02
2019-05-07T21:16:37.642Z,101299.23
2019-05-07T21:19:07.310Z,101293.59
2019-05-07T21:21:37.214Z,101289.48
2019-05-07T21:24:07.026Z,101293.23
2019-05-07T21:26:36.862Z,101285.91
2019-05-07T21:29:06.522Z,101288.94
2019-05-07T21:31:36.282Z,101288.06
2019-05-07T21:34:06.021Z,101282.80
2019-05-07T21:36:38.678Z,101282.32
2019-05-07T21:39:08.489Z,101281.79
2019-05-07T21:41:38.215Z,101280.02
2019-05-07T21:44:07.873Z,101275.67
2019-05-07T21:46:37.639Z,101269.47
2019-05-07T21:49:07.303Z,101265.81
2019-05-07T21:51:37.063Z,101267.96
2019-05-07T21:54:23.692Z,101262.88
2019-05-07T21:57:04.378Z,101261.19
2019-05-07T21:59:35.940Z,101246.97
2019-05-07T22:02:08.507Z,101250.64
2019-05-07T22:04:38.170Z,101250.23
2019-05-07T22:07:08.015Z,101251.52
2019-05-07T22:09:37.765Z,101243.17
2019-05-07T22:12:07.589Z,101246.02
2019-05-07T22:14:37.266Z,101240.63
2019-05-07T22:17:06.935Z,101229.58
2019-05-07T22:19:36.620Z,101236.17
2019-05-07T22:22:06.356Z,101236.67
2019-05-07T22:24:36.138Z,101227.75
2019-05-07T22:27:05.809Z,101229.58
2019-05-07T22:29:35.509Z,101228.80
2019-05-07T22:32:16.039Z,101227.83
2019-05-07T22:34:47.383Z,101229.13
2019-05-07T22:37:17.116Z,101225.69
2019-05-07T22:39:46.911Z,101216.86
2019-05-07T22:42:16.558Z,101210.97
2019-05-07T22:44:46.310Z,101204.64
2019-05-07T22:47:19.106Z,101200.72
2019-05-07T22:49:53.482Z,101195.48
2019-05-07T22:52:22.632Z,101201.02
2019-05-07T22:54:52.410Z,101188.90
2019-05-07T22:57:29.519Z,101184.84
2019-05-07T22:59:59.263Z,101183.23
2019-05-07T23:02:31.952Z,101188.11
2019-05-07T23:05:02.866Z,101184.77
2019-05-07T23:07:32.964Z,101177.88
2019-05-07T23:10:03.021Z,101180.18
2019-05-07T23:12:33.008Z,101184.86
2019-05-07T23:15:02.902Z,101179.23
2019-05-07T23:17:32.779Z,101177.97
2019-05-07T23:20:02.757Z,101182.02
2019-05-07T23:22:32.551Z,101183.13
2019-05-07T23:25:02.357Z,101181.70
2019-05-07T23:27:32.551Z,101184.06
2019-05-07T23:30:02.754Z,101181.94
2019-05-07T23:32:33.044Z,101182.63
2019-05-07T23:35:02.988Z,101182.23
2019-05-07T23:37:33.227Z,101182.31
2019-05-07T23:40:14.171Z,101189.71
2019-05-07T23:42:48.042Z,101186.92
2019-05-07T23:45:17.799Z,101189.78
2019-05-07T23:47:47.534Z,101176.77
2019-05-07T23:50:17.468Z,101182.87
2019-05-07T23:55:31.772Z,101181.75
2019-05-07T23:58:03.108Z,101165.81
